Kezdőlap
METAR-TAF:

METAR-TAF

Repülőterek :

Dzserba, Tunézia

földrajzi szélesség: 33-52N, földrajzi hosszúság: 010-46E, magasság: 3 m

Jelenlegi meteorológiai megfigyelések

A jelentés 33 perccel ezelõtt készült, 12:30 UTC
Északkeleti szél 5 kt, északi és keleti között változik
Hőmérséklet 21°C
Páratartalom 53%
Légköri nyomás 1021 hPa
Látótávolság: 8000 m

METAR: DTTJ 151230Z 04005KT 350V090 8000 NSC 21/11 Q1021 NOSIG

Idő: 14:03 (13:03 UTC)

Előrejelzés

A jelentés 2 órával és 3 perccel ezelõtt készült, 11:00 UTC
Az előrejelzés 15-én 12 óra UTC és 16-én 12 óra UTC között érvényes
Különbözõ irányokból fújó szél 4 kt
Látótávolság: 8000 m
16-én 08 óra UTC és 16-én 10 óra UTC között fokozatosan kialakuló
Déli szél 10 kt

TAF: DTTJ 151100Z 1512/1612 VRB04KT 8000 NSC BECMG 1608/1610 17010KT

Meteorológiai megfigyelések és előrejelzések több, mint 4000 repülőtéren (METAR és TAF jelentéseket).

A térképen piros és sárga pontok jelzik az elérhető meteorológiai állomásokat.

Mozgassa az egeret a pont fölött, hogy megjelenjen az állomás neve.

Azután kattintson az időjárási megfigyelések és előrejelzések megtekintéséhez.

A térkép megváltoztatása: kattintson a fekete keresztel jelölt zöld gombra ráközelítéshez, a vonallal jelölt zöld gombra távolításhoz, vagy a zöld nyilakra a szomszédos térképek eléréséhez.


METAR-TAF: